Time;durP1;ratioP1;P1;durP2;ratioP2;P2;SDS_P1;SDS_P2;PMS_P1;PMS_P2;Temp;Humidity;BMP_temperature;BMP_pressure;BME280_temperature;BME280_humidity;BME280_pressure;Samples;Min_cycle;Max_cycle;Signal;HPM_P1;HPM_P2
2021/03/03 00:01:39;;;;;;;14.27;6.30;;;;;;;-1.56;82.35;94408.88;5080275;28;20057;-96
2021/03/03 00:04:09;;;;;;;13.27;7.78;;;;;;;-2.25;81.95;94310.25;5079643;28;20052;-95
2021/03/03 00:06:35;;;;;;;14.75;6.95;;;;;;;-1.43;82.06;94417.19;5081739;28;20510;-95
2021/03/03 00:09:21;;;;;;;;;;;;;;;;;;;;;
2021/03/03 00:11:48;;;;;;;11.68;6.10;;;;;;;-2.03;82.23;94327.19;5081404;28;20059;-95
2021/03/03 00:14:15;;;;;;;11.70;5.45;;;;;;;-1.67;82.08;94375.16;5081657;28;20143;-96
2021/03/03 00:16:43;;;;;;;12.27;5.78;;;;;;;-1.44;82.35;94418.13;5081551;28;20061;-94
2021/03/03 00:19:10;;;;;;;10.95;7.28;;;;;;;-2.06;82.49;94337.50;5081818;28;20072;-95
2021/03/03 00:26:46;;;;;;;20.20;8.18;;;;;;;-1.43;83.79;94439.09;5105546;28;20070;-95
2021/03/03 00:29:31;;;;;;;20.33;9.98;;;;;;;-2.31;83.76;94311.44;5107620;28;20055;-95
2021/03/03 00:31:58;;;;;;;21.42;9.45;;;;;;;-1.37;83.52;94458.84;5094426;28;20062;-96
2021/03/03 00:34:25;;;;;;;28.10;10.27;;;;;;;-2.24;83.50;94326.94;5110667;28;20075;-95
2021/03/03 00:36:52;;;;;;;18.98;9.20;;;;;;;-1.53;83.76;94426.34;5106136;28;20051;-95
2021/03/03 00:39:18;;;;;;;18.63;8.15;;;;;;;-1.64;82.70;94414.44;5106009;28;20109;-96
2021/03/03 00:41:45;;;;;;;11.10;7.03;;;;;;;-1.86;82.37;94392.44;5107248;28;20048;-95
2021/03/03 00:44:11;;;;;;;17.10;7.32;;;;;;;-1.76;82.15;94418.63;5105551;28;20050;-94
2021/03/03 00:46:38;;;;;;;12.32;6.28;;;;;;;-1.91;82.24;94396.06;5110530;28;20072;-95
2021/03/03 01:15:43;;;;;;;13.65;7.70;;;;;;;-2.49;83.40;94343.69;5366962;22;19921;-95
2021/03/03 01:18:10;;;;;;;15.88;7.38;;;;;;;-1.76;83.69;94458.94;5044155;28;20053;-96
2021/03/03 01:20:36;;;;;;;10.75;6.28;;;;;;;-2.69;83.53;94318.13;5044680;28;20057;-96
2021/03/03 01:23:03;;;;;;;10.63;6.00;;;;;;;-2.36;83.97;94368.84;5043838;28;20072;-96
2021/03/03 01:25:35;;;;;;;13.90;7.70;;;;;;;-2.63;84.45;94332.03;5047627;28;20108;-96
2021/03/03 01:36:11;;;;;;;15.05;8.32;;;;;;;-1.65;84.60;94459.00;6054609;22;20012;-96
2021/03/03 01:41:15;;;;;;;10.85;7.35;;;;;;;-2.39;83.48;94364.00;5979886;22;20041;-96
2021/03/03 06:05:48;;;;;;;9.05;4.03;;;;;;;-2.43;85.08;94388.59;5036220;28;20145;-96
2021/03/03 06:08:18;;;;;;;10.73;4.53;;;;;;;-2.40;84.72;94369.16;5034237;28;20046;-96
2021/03/03 06:11:14;;;;;;;13.10;6.40;;;;;;;-1.17;84.37;94528.06;5035091;28;20060;-96
2021/03/03 06:16:29;;;;;;;11.18;7.45;;;;;;;-1.68;83.69;94383.63;5036888;28;20061;-96
2021/03/03 06:19:00;;;;;;;5.97;4.20;;;;;;;-1.61;83.49;94361.34;5033675;28;20037;-96
2021/03/03 06:24:06;;;;;;;13.30;6.97;;;;;;;0.02;82.66;94513.06;5027872;28;20057;-96
2021/03/03 06:26:41;;;;;;;9.77;5.50;;;;;;;-0.14;82.15;94450.22;5029620;28;20158;-96
2021/03/03 06:29:14;;;;;;;17.42;7.88;;;;;;;-0.36;82.09;94370.19;5027713;28;20045;-96
2021/03/03 06:31:41;;;;;;;32.60;9.63;;;;;;;0.08;81.59;94393.03;5026520;28;20046;-96
2021/03/03 06:34:13;;;;;;;20.25;11.73;;;;;;;1.12;79.52;94516.72;5024599;28;20417;-96
2021/03/03 06:36:40;;;;;;;17.40;9.20;;;;;;;0.96;78.54;94463.16;5024307;28;20050;-96
2021/03/03 06:39:28;;;;;;;21.27;8.68;;;;;;;1.23;80.78;94444.16;5023743;28;20053;-96
2021/03/03 06:41:56;;;;;;;16.30;7.68;;;;;;;1.44;76.94;94447.53;5023860;28;20057;-96
2021/03/03 06:44:24;;;;;;;17.90;7.55;;;;;;;1.63;75.75;94433.41;5024879;28;20056;-96
2021/03/03 06:47:03;;;;;;;11.82;5.25;;;;;;;2.34;77.47;94482.59;5022846;28;20046;-95
2021/03/03 06:49:30;;;;;;;16.60;5.82;;;;;;;2.68;76.77;94481.47;5023961;28;20041;-96
2021/03/03 06:51:57;;;;;;;18.08;6.10;;;;;;;3.02;75.67;94490.53;5023887;28;20440;-95
2021/03/03 06:54:25;;;;;;;24.25;7.70;;;;;;;3.49;73.63;94517.84;5022829;28;20061;-96
2021/03/03 06:56:53;;;;;;;11.77;4.78;;;;;;;3.51;73.23;94472.78;5023117;28;20042;-96
2021/03/03 06:59:22;;;;;;;19.20;7.63;;;;;;;4.04;73.74;94506.31;5023076;28;20069;-96
2021/03/03 07:01:50;;;;;;;18.58;7.45;;;;;;;4.16;71.09;94481.50;5020845;28;20058;-96
2021/03/03 07:04:25;;;;;;;15.70;8.73;;;;;;;4.81;70.77;94524.00;5021906;28;20054;-96
2021/03/03 07:06:54;;;;;;;20.42;9.52;;;;;;;4.79;68.86;94479.25;5023313;28;20053;-96
2021/03/03 07:09:23;;;;;;;17.77;9.73;;;;;;;4.80;67.82;94440.13;5021210;28;20042;-95
2021/03/03 07:12:01;;;;;;;42.60;18.85;;;;;;;5.26;67.03;94478.31;5022453;28;20081;-96
2021/03/03 07:15:08;;;;;;;38.50;18.20;;;;;;;4.92;67.10;94398.22;5029492;28;20053;-96
2021/03/03 07:17:49;;;;;;;39.63;15.10;;;;;;;5.14;65.55;94385.22;5034572;28;20068;-96
2021/03/03 07:20:18;;;;;;;39.63;16.13;;;;;;;5.49;65.69;94411.59;5021401;28;20041;-96
2021/03/03 07:32:30;;;;;;;12.43;5.97;;;;;;;5.64;64.23;94404.22;4959336;28;20058;-96
2021/03/03 07:34:58;;;;;;;11.25;4.88;;;;;;;5.81;64.50;94400.03;4977791;28;20460;-96
2021/03/03 07:37:31;;;;;;;10.25;5.30;;;;;;;5.93;64.72;94420.97;5002469;28;20076;-96
2021/03/03 07:40:01;;;;;;;12.40;6.05;;;;;;;6.55;63.65;94499.16;4999370;28;20057;-95
2021/03/03 07:42:29;;;;;;;10.57;4.45;;;;;;;6.13;64.74;94436.91;4999362;28;20054;-96
2021/03/03 07:45:44;;;;;;;13.50;5.32;;;;;;;6.65;64.80;94493.13;5000662;28;20054;-96
2021/03/03 07:49:15;;;;;;;13.07;5.63;;;;;;;6.72;63.56;94486.47;5001812;28;20106;-96
2021/03/03 07:52:08;;;;;;;10.40;5.13;;;;;;;6.31;64.09;94381.63;4985752;28;20074;-95
2021/03/03 07:54:58;;;;;;;19.60;8.15;;;;;;;7.29;61.95;94456.91;4999247;28;20118;-95
2021/03/03 08:07:36;;;;;;;13.07;5.97;;;;;;;8.54;56.62;94444.78;4958297;28;20582;-95
2021/03/03 08:10:32;;;;;;;17.52;6.00;;;;;;;8.24;55.22;94420.69;4956990;28;20044;-96
2021/03/03 08:13:04;;;;;;;11.55;5.72;;;;;;;8.52;57.02;94423.66;4967831;28;20054;-96
2021/03/03 08:15:38;;;;;;;8.82;4.72;;;;;;;8.96;54.88;94449.72;4996980;28;20504;-96
2021/03/03 08:18:24;;;;;;;13.65;5.93;;;;;;;9.26;54.27;94462.66;4997127;28;20046;-95
2021/03/03 08:20:52;;;;;;;14.80;5.90;;;;;;;9.02;54.84;94400.34;4998060;28;20054;-96
2021/03/03 08:23:42;;;;;;;11.35;4.70;;;;;;;9.42;53.24;94463.53;5023902;28;20054;-96
2021/03/03 08:26:12;;;;;;;13.25;4.50;;;;;;;9.29;51.92;94425.63;5036764;28;20057;-96
2021/03/03 08:28:40;;;;;;;11.02;4.82;;;;;;;8.24;54.29;94346.47;5038686;28;20042;-96
2021/03/03 08:34:22;;;;;;;11.05;5.47;;;;;;;8.28;56.05;94370.75;4990977;28;20081;-96
2021/03/03 08:37:00;;;;;;;14.63;4.82;;;;;;;8.78;54.55;94412.34;4997780;28;20058;-96
2021/03/03 08:39:39;;;;;;;9.90;5.65;;;;;;;8.91;53.82;94388.72;4997263;28;20061;-96
2021/03/03 08:42:31;;;;;;;12.30;5.00;;;;;;;9.51;52.89;94459.94;4996373;28;20046;-96
2021/03/03 08:45:10;;;;;;;10.77;5.57;;;;;;;8.85;55.64;94416.78;4996863;28;20081;-95
2021/03/03 08:47:54;;;;;;;11.27;5.88;;;;;;;9.28;53.42;94434.28;4997200;28;20054;-96
2021/03/03 08:50:35;;;;;;;11.98;4.95;;;;;;;9.41;54.55;94429.41;5000251;28;20552;-96
2021/03/03 08:53:30;;;;;;;8.77;4.75;;;;;;;9.70;51.27;94450.97;5000819;28;20124;-96
2021/03/03 09:05:33;;;;;;;16.08;5.93;;;;;;;9.27;52.45;94354.03;4920109;29;20056;-96
2021/03/03 09:08:02;;;;;;;11.52;5.53;;;;;;;8.99;53.84;94325.56;4921562;29;20059;-96
2021/03/03 09:21:28;;;;;;;16.10;5.93;;;;;;;10.83;50.02;94436.50;4829235;29;20058;-96
2021/03/03 09:30:52;;;;;;;11.25;5.35;;;;;;;11.35;48.71;94434.66;4902261;29;20080;-96
2021/03/03 09:46:59;;;;;;;11.68;6.15;;;;;;;12.35;45.50;94409.09;4879312;29;20474;-96
2021/03/03 09:49:28;;;;;;;11.43;5.72;;;;;;;12.03;44.99;94343.31;4878892;29;20048;-94
2021/03/03 09:51:54;;;;;;;9.25;5.43;;;;;;;12.51;47.73;94400.22;4960244;28;20072;-94
2021/03/03 09:57:44;;;;;;;11.38;5.47;;;;;;;12.86;46.58;94396.78;5017363;28;20061;-96
2021/03/03 10:00:12;;;;;;;9.88;4.72;;;;;;;12.93;43.71;94408.72;5016774;28;20054;-96
2021/03/03 10:02:46;;;;;;;16.02;6.95;;;;;;;12.85;43.60;94356.50;5016991;28;20046;-96
2021/03/03 10:08:34;;;;;;;8.75;4.65;;;;;;;12.52;43.94;94345.13;5016615;28;20096;-95
2021/03/03 10:11:01;;;;;;;11.75;4.47;;;;;;;12.40;44.41;94316.53;5016580;28;20050;-96
2021/03/03 10:23:55;;;;;;;9.60;5.05;;;;;;;13.03;43.14;94322.41;4896468;28;20432;-93
2021/03/03 10:26:58;;;;;;;11.23;4.37;;;;;;;12.99;41.46;94270.44;4940968;28;20518;-95
2021/03/03 10:29:35;;;;;;;9.55;4.03;;;;;;;12.95;39.87;94349.19;4954233;29;20051;-93
2021/03/03 10:32:22;;;;;;;9.05;3.92;;;;;;;12.05;40.31;94276.19;4936664;28;20070;-92
2021/03/03 10:34:49;;;;;;;11.32;3.65;;;;;;;12.55;38.51;94309.44;5009082;28;20519;-93
2021/03/03 10:37:24;;;;;;;6.53;3.30;;;;;;;12.81;37.85;94302.75;5014593;28;20485;-93
2021/03/03 10:39:52;;;;;;;8.35;3.45;;;;;;;13.03;39.11;94297.44;5013994;28;20081;-93
2021/03/03 10:42:22;;;;;;;15.38;8.32;;;;;;;13.82;39.44;94352.81;5018116;28;20737;-93
2021/03/03 10:44:52;;;;;;;12.52;5.82;;;;;;;14.12;39.26;94316.19;5033654;28;20060;-93
2021/03/03 10:47:40;;;;;;;11.02;4.82;;;;;;;14.29;36.42;94301.00;5033462;28;20088;-93
2021/03/03 10:50:08;;;;;;;6.57;3.10;;;;;;;14.39;37.50;94296.19;5033873;28;20050;-91
2021/03/03 10:52:35;;;;;;;8.00;3.75;;;;;;;14.78;38.82;94313.53;5034365;28;20056;-94
2021/03/03 10:55:15;;;;;;;9.85;3.92;;;;;;;14.77;37.83;94267.97;5033824;28;20053;-92
2021/03/03 10:58:06;;;;;;;5.13;3.17;;;;;;;15.06;37.63;94245.88;5033204;28;20048;-91
2021/03/03 11:00:33;;;;;;;10.30;4.28;;;;;;;15.72;36.69;94319.75;5033122;28;20049;-91
2021/03/03 11:03:01;;;;;;;12.13;4.05;;;;;;;15.91;35.64;94323.16;5021543;28;20050;-91
2021/03/03 11:05:31;;;;;;;10.25;4.07;;;;;;;15.21;34.64;94205.91;4994471;28;20823;-92
2021/03/03 11:07:58;;;;;;;8.48;3.60;;;;;;;16.12;36.37;94305.66;4993939;28;20489;-92
2021/03/03 11:10:25;;;;;;;10.65;3.75;;;;;;;15.83;34.74;94258.69;4993546;28;20108;-91
2021/03/03 11:12:52;;;;;;;7.90;3.38;;;;;;;15.81;34.46;94243.38;4993342;28;20046;-91
2021/03/03 11:15:18;;;;;;;10.63;3.63;;;;;;;15.98;33.99;94269.50;4993201;28;20136;-91
2021/03/03 11:17:45;;;;;;;7.45;3.58;;;;;;;15.74;35.75;94235.66;4993360;28;20051;-92
2021/03/03 11:20:12;;;;;;;8.73;2.75;;;;;;;16.25;34.11;94287.34;5023042;28;20472;-92
2021/03/03 11:22:38;;;;;;;6.47;3.33;;;;;;;15.79;33.39;94229.03;5033036;28;20053;-92
2021/03/03 11:25:09;;;;;;;10.13;4.32;;;;;;;16.14;34.42;94294.06;5032589;28;20065;-94
2021/03/03 11:28:00;;;;;;;7.32;3.70;;;;;;;15.77;33.26;94182.63;5034101;28;20506;-91
2021/03/03 11:30:26;;;;;;;7.57;2.88;;;;;;;16.39;30.34;94282.78;5033469;28;20055;-94
2021/03/03 11:32:53;;;;;;;7.53;3.42;;;;;;;16.39;32.51;94274.22;5033109;28;20045;-93
2021/03/03 11:35:19;;;;;;;;;;;;;;;16.56;30.58;94272.59;5033381;28;20103;-94
2021/03/03 11:41:19;;;;;;;6.45;2.75;;;;;;;15.15;28.50;94160.19;5020516;28;20116;-92
2021/03/03 11:47:29;;;;;;;7.35;2.40;;;;;;;13.92;27.76;94190.47;4951526;29;20059;-91
2021/03/03 11:52:55;;;;;;;5.38;2.72;;;;;;;14.72;27.74;94182.44;5031152;28;20092;-91
2021/03/03 11:55:21;;;;;;;;;;;;;;;15.22;27.96;94241.94;5018101;28;20785;-92
2021/03/03 11:58:02;;;;;;;4.95;2.58;;;;;;;15.28;28.21;94222.16;5012526;28;20621;-92
2021/03/03 12:00:29;;;;;;;3.88;1.77;;;;;;;15.81;31.04;94239.97;5012806;28;20526;-91
2021/03/03 12:02:56;;;;;;;5.00;2.28;;;;;;;15.67;31.57;94184.94;5001476;28;20038;-91
2021/03/03 12:05:23;;;;;;;6.63;2.85;;;;;;;15.80;28.97;94156.28;4998818;28;20427;-90
2021/03/03 12:07:50;;;;;;;7.05;2.45;;;;;;;15.52;27.94;94196.47;4997186;28;20054;-90
2021/03/03 12:10:16;;;;;;;5.50;2.15;;;;;;;15.14;28.40;94203.38;4997210;28;20055;-90
2021/03/03 12:12:43;;;;;;;4.45;2.05;;;;;;;15.50;30.91;94219.97;4992531;28;20101;-90
2021/03/03 12:15:09;;;;;;;9.80;3.10;;;;;;;15.46;28.81;94168.84;4992658;28;20138;-90
2021/03/03 12:17:37;;;;;;;5.30;2.30;;;;;;;15.94;28.99;94234.69;5005556;28;20050;-91
2021/03/03 12:20:04;;;;;;;3.20;1.30;;;;;;;15.36;27.48;94174.50;5012205;28;20429;-92
2021/03/03 12:22:30;;;;;;;6.00;1.73;;;;;;;15.54;26.86;94189.25;5012857;28;20046;-92
2021/03/03 12:24:56;;;;;;;;;;;;;;;16.07;30.72;94222.56;5015709;28;20404;-91
2021/03/03 12:27:23;;;;;;;7.57;1.63;;;;;;;15.83;28.38;94148.06;5016288;28;19928;-91
2021/03/03 12:29:49;;;;;;;;;;;;;;;16.53;27.52;94225.56;5017044;28;20046;-92
2021/03/03 12:32:18;;;;;;;4.78;1.50;;;;;;;16.06;28.42;94138.84;5017014;28;20379;-93
2021/03/03 12:34:45;;;;;;;4.32;2.38;;;;;;;16.42;28.04;94157.06;5016538;28;20468;-93
2021/03/03 12:37:17;;;;;;;7.05;2.50;;;;;;;16.60;27.26;94158.00;5016369;28;20053;-93
2021/03/03 12:39:44;;;;;;;5.28;2.38;;;;;;;16.52;28.78;94159.91;5017047;28;20058;-93
2021/03/03 12:42:10;;;;;;;6.13;1.80;;;;;;;16.46;27.52;94147.03;5017002;28;20053;-93
2021/03/03 12:44:38;;;;;;;3.92;2.15;;;;;;;16.87;27.10;94170.56;5016757;28;20053;-94
2021/03/03 12:47:05;;;;;;;6.15;2.10;;;;;;;16.81;28.62;94208.59;5016441;28;20069;-94
2021/03/03 12:49:32;;;;;;;2.95;1.60;;;;;;;16.53;26.26;94191.84;5016211;28;20050;-94
2021/03/03 12:51:59;;;;;;;4.28;1.95;;;;;;;16.48;26.74;94195.09;5016175;28;20050;-93
2021/03/03 12:54:25;;;;;;;4.45;1.50;;;;;;;16.71;27.83;94201.31;5016147;28;20054;-93
2021/03/03 12:56:51;;;;;;;;;;;;;;;16.70;28.09;94210.94;5016907;28;20054;-93
2021/03/03 12:59:18;;;;;;;3.97;1.65;;;;;;;16.65;27.96;94194.44;5016294;28;20379;-92
2021/03/03 13:01:44;;;;;;;3.85;1.75;;;;;;;17.06;27.48;94210.22;5016140;28;20049;-92
2021/03/03 13:04:10;;;;;;;5.07;2.38;;;;;;;17.02;26.55;94178.69;5016938;28;20064;-94
2021/03/03 13:06:37;;;;;;;3.75;2.17;;;;;;;17.35;27.10;94203.31;5016233;28;20592;-93
2021/03/03 13:09:04;;;;;;;;;;;;;;;17.31;25.27;94198.81;5016224;28;20050;-94
2021/03/03 13:11:30;;;;;;;3.53;1.65;;;;;;;16.79;27.39;94153.50;5016315;28;19968;-93
2021/03/03 13:13:57;;;;;;;5.30;1.75;;;;;;;16.99;26.85;94173.16;5016266;28;20046;-94
2021/03/03 13:16:23;;;;;;;;;;;;;;;17.40;26.91;94204.44;5016619;28;20477;-94
2021/03/03 13:18:49;;;;;;;5.55;2.00;;;;;;;17.41;27.01;94185.25;5015755;28;19921;-92
2021/03/03 13:21:16;;;;;;;3.97;1.70;;;;;;;17.31;27.92;94146.88;5015770;28;20045;-93
2021/03/03 13:23:42;;;;;;;5.32;2.08;;;;;;;17.75;26.64;94195.81;5015544;28;20057;-94
2021/03/03 13:26:10;;;;;;;3.08;1.40;;;;;;;17.65;25.35;94193.00;5016047;28;20451;-94
2021/03/03 13:28:36;;;;;;;2.92;1.33;;;;;;;17.34;24.83;94190.56;5032937;28;20054;-94
2021/03/03 13:31:02;;;;;;;4.32;1.77;;;;;;;16.92;26.96;94131.75;5035411;28;20045;-93
2021/03/03 13:33:29;;;;;;;8.73;3.30;;;;;;;17.45;27.73;94181.97;5035239;28;20041;-92
2021/03/03 13:35:55;;;;;;;4.55;1.63;;;;;;;17.47;26.22;94184.34;5033261;28;20458;-92
2021/03/03 13:38:21;;;;;;;4.30;2.10;;;;;;;16.98;26.30;94123.06;5032989;28;20056;-93
2021/03/03 13:40:48;;;;;;;2.47;1.10;;;;;;;16.61;25.57;94094.75;5034924;28;20131;-93
2021/03/03 13:43:16;;;;;;;3.53;1.40;;;;;;;16.75;26.80;94183.53;5035460;28;20076;-92
2021/03/03 13:45:42;;;;;;;4.47;1.42;;;;;;;16.60;27.80;94143.25;5035199;28;20053;-94
2021/03/03 13:48:09;;;;;;;;;;;;;;;16.76;26.09;94177.34;5035607;28;20196;-92
2021/03/03 13:50:35;;;;;;;3.80;1.23;;;;;;;16.13;24.84;94164.66;5034935;28;19920;-93
2021/03/03 13:53:01;;;;;;;2.38;1.25;;;;;;;15.34;25.36;94114.41;5035076;28;20060;-94
2021/03/03 13:55:27;;;;;;;;;;;;;;;15.70;23.84;94176.75;5035140;28;20061;-93
2021/03/03 13:57:54;;;;;;;1.20;0.75;;;;;;;15.80;24.53;94174.44;5035375;28;20275;-94
2021/03/03 14:00:22;;;;;;;2.35;1.23;;;;;;;15.17;26.03;94127.13;5035318;28;20103;-92
2021/03/03 14:02:48;;;;;;;3.65;1.35;;;;;;;14.99;26.06;94108.00;5034936;28;20053;-93
2021/03/03 14:05:15;;;;;;;2.38;1.10;;;;;;;14.93;25.76;94121.78;5034802;28;20100;-94
2021/03/03 14:07:41;;;;;;;1.63;0.90;;;;;;;14.82;26.43;94098.19;5034452;28;20416;-92
2021/03/03 14:10:08;;;;;;;;;;;;;;;15.23;26.34;94160.69;5034401;28;20054;-92
2021/03/03 14:12:35;;;;;;;3.80;1.65;;;;;;;14.87;26.84;94091.59;5034339;28;20016;-92
2021/03/03 14:15:01;;;;;;;4.40;1.65;;;;;;;14.77;26.07;94107.63;5034602;28;20076;-93
2021/03/03 14:17:32;;;;;;;2.92;1.17;;;;;;;14.36;26.80;94053.66;5034588;28;20037;-93
2021/03/03 14:20:01;;;;;;;3.10;1.50;;;;;;;14.34;26.35;94083.31;5035655;28;20484;-93
2021/03/03 14:22:38;;;;;;;4.82;2.08;;;;;;;14.51;27.06;94124.91;5034251;28;20876;-92
2021/03/03 14:25:05;;;;;;;3.15;1.60;;;;;;;14.85;27.52;94153.13;5035701;28;20432;-92
2021/03/03 14:27:32;;;;;;;1.95;1.38;;;;;;;14.80;27.27;94149.38;5015124;28;20120;-93
2021/03/03 14:29:58;;;;;;;;;;;;;;;14.90;27.31;94151.47;5006398;28;20046;-94
2021/03/03 14:32:24;;;;;;;6.68;2.33;;;;;;;14.42;27.87;94090.78;5008377;28;19928;-92
2021/03/03 14:34:51;;;;;;;;;;;;;;;14.67;27.42;94147.66;4992748;28;20062;-93
2021/03/03 14:37:17;;;;;;;24.52;9.48;;;;;;;14.39;27.91;94154.03;4996621;28;19921;-92
2021/03/03 14:39:44;;;;;;;16.20;6.25;;;;;;;14.24;27.65;94105.22;5009033;28;20085;-91
2021/03/03 14:42:14;;;;;;;3.40;1.55;;;;;;;14.40;27.80;94118.63;4998971;28;20050;-91
2021/03/03 14:44:40;;;;;;;3.47;1.60;;;;;;;14.52;27.79;94147.16;4994437;28;20069;-92
2021/03/03 14:47:06;;;;;;;;;;;;;;;14.45;28.51;94157.56;5025811;28;20052;-92
2021/03/03 14:49:33;;;;;;;2.28;1.33;;;;;;;13.63;28.01;94072.03;5033288;28;19925;-92
2021/03/03 14:52:00;;;;;;;;;;;;;;;14.23;28.55;94151.94;5014788;28;20058;-91
2021/03/03 14:54:26;;;;;;;2.30;1.33;;;;;;;14.02;28.58;94118.47;5013438;28;19979;-91
2021/03/03 14:56:52;;;;;;;;;;;;;;;14.25;28.38;94142.97;5008367;28;20081;-92
2021/03/03 14:59:19;;;;;;;3.38;1.30;;;;;;;14.19;28.31;94143.00;5014010;28;19921;-93
2021/03/03 15:01:45;;;;;;;4.03;1.48;;;;;;;13.66;28.37;94075.19;5014174;28;20054;-93
2021/03/03 15:04:12;;;;;;;5.10;1.65;;;;;;;13.55;28.61;94079.19;5014052;28;20057;-92
2021/03/03 15:06:38;;;;;;;3.28;1.27;;;;;;;13.42;28.17;94049.09;5014213;28;20100;-93
2021/03/03 15:09:06;;;;;;;8.73;2.50;;;;;;;13.68;28.53;94088.69;5013716;28;20049;-93
2021/03/03 15:11:32;;;;;;;11.20;3.67;;;;;;;13.90;28.45;94118.34;5013871;28;20056;-95
2021/03/03 15:13:58;;;;;;;;;;;;;;;13.97;27.97;94133.81;5014363;28;20052;-94
2021/03/03 15:16:25;;;;;;;6.20;3.42;;;;;;;13.71;28.81;94103.75;5013712;28;19929;-93
2021/03/03 15:18:51;;;;;;;7.13;2.83;;;;;;;13.40;28.34;94058.81;5013476;28;20081;-93
2021/03/03 15:21:17;;;;;;;;;;;;;;;13.79;28.81;94128.56;5013576;28;20050;-93
2021/03/03 15:23:44;;;;;;;3.03;1.20;;;;;;;13.76;28.46;94129.75;5013448;28;19929;-92
2021/03/03 15:26:11;;;;;;;3.67;1.25;;;;;;;13.47;28.73;94081.03;5013469;28;20049;-93
2021/03/03 15:28:38;;;;;;;4.07;1.52;;;;;;;13.65;28.73;94102.00;5013536;28;20049;-94
2021/03/03 15:31:04;;;;;;;;;;;;;;;13.70;29.24;94128.78;5014209;28;20473;-93
2021/03/03 15:33:30;;;;;;;3.53;1.80;;;;;;;13.46;29.22;94105.25;5013602;28;19944;-92
2021/03/03 15:35:56;;;;;;;3.90;1.70;;;;;;;13.06;29.08;94052.00;5013368;28;20060;-93
2021/03/03 15:38:22;;;;;;;;;;;;;;;13.65;29.40;94128.59;5013952;28;20559;-93
2021/03/03 15:40:49;;;;;;;4.32;2.05;;;;;;;13.25;29.38;94079.72;5021714;28;19921;-93
2021/03/03 15:43:18;;;;;;;;;;;;;;;13.56;30.21;94132.44;5033661;28;20095;-93
2021/03/03 15:45:45;;;;;;;8.85;2.00;;;;;;;12.91;30.25;94054.81;5032841;28;19921;-93
2021/03/03 15:48:12;;;;;;;5.78;2.67;;;;;;;13.10;30.67;94093.63;5032528;28;20088;-92
2021/03/03 15:50:38;;;;;;;4.57;2.67;;;;;;;13.37;30.11;94129.69;5033210;28;20057;-92
2021/03/03 15:53:04;;;;;;;;;;;;;;;13.27;29.93;94124.16;5033281;28;20053;-93
2021/03/03 15:55:31;;;;;;;5.13;2.25;;;;;;;13.16;30.77;94123.81;5032923;28;19921;-92
2021/03/03 15:57:57;;;;;;;;;;;;;;;13.03;30.45;94123.81;5033455;28;20053;-93
2021/03/03 16:00:25;;;;;;;7.22;2.38;;;;;;;12.80;30.86;94105.22;5033344;28;19978;-93
2021/03/03 16:02:51;;;;;;;4.80;2.13;;;;;;;12.72;30.42;94105.44;5032833;28;20041;-93
2021/03/03 16:05:20;;;;;;;7.70;3.00;;;;;;;12.54;30.25;94103.44;5032618;28;20132;-93
2021/03/03 16:07:46;;;;;;;6.18;2.83;;;;;;;12.39;30.40;94095.94;5032742;28;20049;-92
2021/03/03 16:10:13;;;;;;;;;;;;;;;12.45;30.83;94135.59;5033148;28;20057;-92
2021/03/03 16:12:39;;;;;;;9.80;2.97;;;;;;;12.36;30.73;94137.56;5032513;28;19943;-93
2021/03/03 16:15:06;;;;;;;;;;;;;;;12.21;31.03;94140.34;5033039;28;20053;-92
2021/03/03 16:17:33;;;;;;;13.05;7.68;;;;;;;11.59;31.31;94089.66;5032574;28;19921;-91
2021/03/03 16:19:59;;;;;;;5.50;2.70;;;;;;;11.59;31.39;94098.19;5033512;28;20446;-92
2021/03/03 16:22:26;;;;;;;6.70;4.30;;;;;;;11.77;31.72;94140.59;5032989;28;20392;-92
2021/03/03 16:24:52;;;;;;;;;;;;;;;11.79;31.67;94150.72;5032978;28;20847;-93
2021/03/03 16:27:18;;;;;;;4.10;2.30;;;;;;;11.43;31.89;94111.41;5032358;28;20367;-92
2021/03/03 16:29:44;;;;;;;13.88;6.07;;;;;;;11.30;32.35;94112.91;5032567;28;20049;-93
2021/03/03 16:32:11;;;;;;;;;;;;;;;11.52;32.84;94145.47;5033001;28;20121;-92
2021/03/03 16:34:39;;;;;;;15.48;8.60;;;;;;;11.26;33.65;94134.88;5031880;28;19921;-92
2021/03/03 16:37:06;;;;;;;17.23;6.43;;;;;;;10.88;34.41;94109.53;5032623;28;20046;-91
2021/03/03 16:39:33;;;;;;;15.65;8.18;;;;;;;10.92;34.09;94121.03;5032473;28;20049;-90
2021/03/03 16:41:59;;;;;;;17.45;7.72;;;;;;;11.13;34.34;94155.34;5031871;28;20049;-91
2021/03/03 16:44:29;;;;;;;;;;;;;;;11.01;34.98;94149.97;5032397;28;20053;-92
2021/03/03 16:46:59;;;;;;;13.43;5.45;;;;;;;10.13;35.14;94064.53;5032361;28;19927;-92
2021/03/03 16:49:25;;;;;;;21.95;9.13;;;;;;;10.18;35.72;94105.06;5032409;28;20403;-91
2021/03/03 16:51:52;;;;;;;;;;;;;;;10.38;36.33;94170.22;5032725;28;20050;-92
2021/03/03 16:54:19;;;;;;;13.20;6.25;;;;;;;9.66;36.30;94100.03;5032607;28;19928;-93
2021/03/03 16:56:46;;;;;;;14.88;7.28;;;;;;;9.51;36.63;94100.06;5032423;28;20132;-94
2021/03/03 16:59:12;;;;;;;11.35;5.25;;;;;;;10.02;36.56;94182.16;5032321;28;20049;-93
2021/03/03 17:01:38;;;;;;;13.65;4.82;;;;;;;9.53;37.37;94139.16;5032447;28;20050;-92
2021/03/03 17:04:05;;;;;;;;;;;;;;;9.70;38.12;94180.78;5032965;28;20053;-92
2021/03/03 17:06:34;;;;;;;23.45;9.68;;;;;;;9.36;38.68;94165.00;5032245;28;20288;-93
2021/03/03 17:09:02;;;;;;;33.75;13.77;;;;;;;8.86;39.54;94119.41;5033177;28;20049;-92
2021/03/03 17:11:28;;;;;;;36.17;15.00;;;;;;;9.03;40.27;94189.22;5035429;28;20072;-92
2021/03/03 17:13:54;;;;;;;;;;;;;;;8.99;40.57;94189.75;5036643;28;20057;-92
2021/03/03 17:16:21;;;;;;;39.08;16.25;;;;;;;8.66;40.44;94142.19;5035986;28;19921;-92
2021/03/03 17:18:47;;;;;;;;;;;;;;;8.74;40.96;94190.75;5036279;28;20050;-94
2021/03/03 17:21:13;;;;;;;23.33;10.95;;;;;;;8.10;41.36;94102.28;5035816;28;20248;-93
2021/03/03 17:23:39;;;;;;;;;;;;;;;8.71;41.61;94191.13;5036255;28;20061;-92
2021/03/03 17:26:06;;;;;;;31.65;13.48;;;;;;;8.48;41.74;94168.06;5036679;28;19928;-92
2021/03/03 17:31:19;;;;;;;30.13;15.15;;;;;;;8.38;43.75;94158.06;5035436;28;20053;-92
2021/03/03 17:33:45;;;;;;;;;;;;;;;8.60;44.04;94194.09;5024731;28;20389;-91
2021/03/03 17:36:12;;;;;;;165.90;46.50;;;;;;;7.82;43.26;94108.69;5035066;28;20044;-91
2021/03/03 17:38:38;;;;;;;;;;;;;;;8.35;43.53;94200.16;5036097;28;20088;-92
2021/03/03 17:41:04;;;;;;;94.25;29.02;;;;;;;8.18;43.82;94183.34;5034993;28;20446;-91
2021/03/03 17:43:31;;;;;;;;;;;;;;;8.27;44.44;94200.22;5035773;28;20054;-91
2021/03/03 17:45:58;;;;;;;84.10;28.52;;;;;;;7.77;46.12;94153.66;5034936;28;19956;-92
2021/03/03 17:48:24;;;;;;;69.68;23.58;;;;;;;7.56;47.08;94145.63;5034775;28;20045;-92
2021/03/03 17:50:50;;;;;;;;;;;;;;;7.74;47.31;94195.72;5035248;28;20484;-91
2021/03/03 17:53:16;;;;;;;94.97;32.30;;;;;;;7.29;48.12;94165.53;5034571;28;19928;-90
2021/03/03 17:55:44;;;;;;;;;;;;;;;7.32;48.79;94198.44;5035295;28;20511;-92
2021/03/03 17:58:10;;;;;;;62.83;23.35;;;;;;;7.13;49.38;94199.59;5035196;28;19972;-91
2021/03/03 18:00:37;;;;;;;;;;;;;;;7.07;49.08;94203.59;5035113;28;20400;-91
2021/03/03 18:03:04;;;;;;;42.70;17.75;;;;;;;6.73;49.04;94158.66;5034582;28;20272;-91
2021/03/03 18:05:32;;;;;;;52.03;20.92;;;;;;;6.70;49.52;94168.41;5032570;28;20120;-93
2021/03/03 18:08:00;;;;;;;35.17;15.63;;;;;;;6.51;50.12;94152.44;5014956;28;20080;-92
2021/03/03 18:10:27;;;;;;;40.15;18.10;;;;;;;6.50;49.84;94163.63;5019257;28;20053;-89
2021/03/03 18:12:53;;;;;;;73.43;23.13;;;;;;;6.25;49.30;94135.56;5034281;28;20049;-90
2021/03/03 18:15:20;;;;;;;;;;;;;;;6.61;49.49;94190.59;5034486;28;20053;-91
2021/03/03 18:17:48;;;;;;;62.13;27.17;;;;;;;5.99;49.93;94108.41;5034252;28;19921;-90
2021/03/03 18:20:15;;;;;;;62.50;25.20;;;;;;;5.91;50.56;94105.84;5034201;28;20057;-90
2021/03/03 18:22:42;;;;;;;79.95;28.70;;;;;;;5.73;51.77;94088.94;5033630;28;20086;-91
2021/03/03 18:25:09;;;;;;;64.32;25.50;;;;;;;5.86;52.24;94119.06;5024814;28;20049;-89
2021/03/03 18:27:36;;;;;;;91.75;32.90;;;;;;;5.58;53.08;94087.03;5033860;28;20053;-91
2021/03/03 18:30:03;;;;;;;66.75;26.48;;;;;;;5.95;53.33;94178.53;5033888;28;20759;-89
2021/03/03 18:32:30;;;;;;;50.40;21.55;;;;;;;5.48;53.27;94122.81;5034227;28;20450;-90
2021/03/03 18:34:57;;;;;;;;;;;;;;;5.87;53.82;94199.72;5034253;28;20487;-90
2021/03/03 18:37:23;;;;;;;46.90;18.38;;;;;;;5.46;54.14;94168.06;5032929;28;19921;-91